sensor_id;sensor_type;location;lat;lon;timestamp;pressure;altitude;pressure_sealevel;temperature;humidity
47706;BME280;33471;52.104;1.318;2022-07-21T00:01:14;101451.92;;;18.08;57.68
47706;BME280;33471;52.104;1.318;2022-07-21T00:03:41;101455.70;;;18.26;56.32
47706;BME280;33471;52.104;1.318;2022-07-21T00:06:08;101459.97;;;18.61;55.47
47706;BME280;33471;52.104;1.318;2022-07-21T00:08:35;101460.62;;;18.19;57.63
47706;BME280;33471;52.104;1.318;2022-07-21T00:11:03;101460.55;;;17.97;56.93
47706;BME280;33471;52.104;1.318;2022-07-21T00:13:31;101460.51;;;18.04;56.95
47706;BME280;33471;52.104;1.318;2022-07-21T00:15:58;101463.50;;;18.59;55.67
47706;BME280;33471;52.104;1.318;2022-07-21T00:18:25;101468.38;;;19.62;53.44
47706;BME280;33471;52.104;1.318;2022-07-21T00:20:53;101471.79;;;17.38;60.36
47706;BME280;33471;52.104;1.318;2022-07-21T00:23:20;101464.53;;;18.58;56.74
47706;BME280;33471;52.104;1.318;2022-07-21T00:25:48;101463.36;;;18.83;55.70
47706;BME280;33471;52.104;1.318;2022-07-21T00:28:16;101456.95;;;18.40;56.57
47706;BME280;33471;52.104;1.318;2022-07-21T00:30:43;101458.59;;;18.12;58.88
47706;BME280;33471;52.104;1.318;2022-07-21T00:33:10;101456.45;;;17.90;58.13
47706;BME280;33471;52.104;1.318;2022-07-21T00:35:38;101454.81;;;18.11;56.88
47706;BME280;33471;52.104;1.318;2022-07-21T00:38:05;101460.68;;;18.80;54.69
47706;BME280;33471;52.104;1.318;2022-07-21T00:40:32;101455.96;;;19.07;53.84
47706;BME280;33471;52.104;1.318;2022-07-21T00:43:01;101452.90;;;18.41;56.23
47706;BME280;33471;52.104;1.318;2022-07-21T00:45:29;101450.56;;;18.54;55.97
47706;BME280;33471;52.104;1.318;2022-07-21T00:47:56;101457.59;;;17.90;58.96
47706;BME280;33471;52.104;1.318;2022-07-21T00:50:23;101454.41;;;17.26;60.17
47706;BME280;33471;52.104;1.318;2022-07-21T00:52:51;101454.71;;;17.84;58.93
47706;BME280;33471;52.104;1.318;2022-07-21T00:55:20;101449.59;;;18.51;56.23
47706;BME280;33471;52.104;1.318;2022-07-21T00:57:48;101443.47;;;18.96;55.55
47706;BME280;33471;52.104;1.318;2022-07-21T01:00:19;101439.55;;;17.27;59.26
47706;BME280;33471;52.104;1.318;2022-07-21T01:02:47;101440.46;;;16.92;61.32
47706;BME280;33471;52.104;1.318;2022-07-21T01:05:15;101441.46;;;17.65;59.65
47706;BME280;33471;52.104;1.318;2022-07-21T01:07:45;101441.93;;;17.25;60.54
47706;BME280;33471;52.104;1.318;2022-07-21T01:10:14;101446.30;;;17.49;60.70
47706;BME280;33471;52.104;1.318;2022-07-21T01:12:42;101447.06;;;17.38;59.83
47706;BME280;33471;52.104;1.318;2022-07-21T01:15:11;101443.05;;;17.15;60.81
47706;BME280;33471;52.104;1.318;2022-07-21T01:17:38;101446.86;;;17.24;60.46
47706;BME280;33471;52.104;1.318;2022-07-21T01:20:08;101437.51;;;17.67;58.58
47706;BME280;33471;52.104;1.318;2022-07-21T01:22:39;101436.58;;;19.10;55.05
47706;BME280;33471;52.104;1.318;2022-07-21T01:25:08;101439.75;;;17.85;57.58
47706;BME280;33471;52.104;1.318;2022-07-21T01:27:36;101446.46;;;17.43;59.87
47706;BME280;33471;52.104;1.318;2022-07-21T01:30:05;101446.52;;;16.85;60.71
47706;BME280;33471;52.104;1.318;2022-07-21T01:32:32;101448.53;;;17.31;60.40
47706;BME280;33471;52.104;1.318;2022-07-21T01:35:01;101449.98;;;17.19;61.64
47706;BME280;33471;52.104;1.318;2022-07-21T01:37:30;101445.84;;;17.32;60.26
47706;BME280;33471;52.104;1.318;2022-07-21T01:39:57;101440.92;;;17.63;59.58
47706;BME280;33471;52.104;1.318;2022-07-21T01:42:25;101432.20;;;17.29;59.20
47706;BME280;33471;52.104;1.318;2022-07-21T01:44:52;101433.99;;;18.74;56.42
47706;BME280;33471;52.104;1.318;2022-07-21T01:47:19;101431.57;;;17.60;59.65
47706;BME280;33471;52.104;1.318;2022-07-21T01:49:47;101435.22;;;17.15;60.42
47706;BME280;33471;52.104;1.318;2022-07-21T01:52:14;101437.31;;;16.93;61.08
47706;BME280;33471;52.104;1.318;2022-07-21T01:54:42;101440.98;;;16.65;62.00
47706;BME280;33471;52.104;1.318;2022-07-21T01:57:09;101442.94;;;16.76;61.72
47706;BME280;33471;52.104;1.318;2022-07-21T01:59:36;101445.36;;;16.61;62.79
47706;BME280;33471;52.104;1.318;2022-07-21T02:02:03;101449.28;;;18.05;60.05
47706;BME280;33471;52.104;1.318;2022-07-21T02:04:30;101448.29;;;17.49;59.99
47706;BME280;33471;52.104;1.318;2022-07-21T02:06:58;101448.95;;;18.35;58.03
47706;BME280;33471;52.104;1.318;2022-07-21T02:09:25;101458.81;;;17.50;59.77
47706;BME280;33471;52.104;1.318;2022-07-21T02:11:52;101457.06;;;17.95;58.55
47706;BME280;33471;52.104;1.318;2022-07-21T02:14:20;101463.45;;;17.30;59.84
47706;BME280;33471;52.104;1.318;2022-07-21T02:16:47;101465.42;;;17.28;60.40
47706;BME280;33471;52.104;1.318;2022-07-21T02:19:14;101469.45;;;17.38;60.38
47706;BME280;33471;52.104;1.318;2022-07-21T02:21:41;101472.14;;;17.44;60.18
47706;BME280;33471;52.104;1.318;2022-07-21T02:24:09;101475.90;;;17.22;60.05
47706;BME280;33471;52.104;1.318;2022-07-21T02:26:36;101475.35;;;17.91;58.20
47706;BME280;33471;52.104;1.318;2022-07-21T02:29:04;101476.25;;;18.27;55.59
47706;BME280;33471;52.104;1.318;2022-07-21T02:31:31;101484.58;;;17.94;57.79
47706;BME280;33471;52.104;1.318;2022-07-21T02:33:59;101484.53;;;18.08;57.68
47706;BME280;33471;52.104;1.318;2022-07-21T02:36:26;101487.73;;;18.34;57.13
47706;BME280;33471;52.104;1.318;2022-07-21T02:38:53;101490.40;;;17.71;57.93
47706;BME280;33471;52.104;1.318;2022-07-21T02:41:21;101495.40;;;18.35;55.82
47706;BME280;33471;52.104;1.318;2022-07-21T02:43:48;101499.31;;;18.36;56.53
47706;BME280;33471;52.104;1.318;2022-07-21T02:46:16;101499.30;;;18.13;56.88
47706;BME280;33471;52.104;1.318;2022-07-21T02:48:44;101500.68;;;18.34;55.75
47706;BME280;33471;52.104;1.318;2022-07-21T02:51:11;101503.34;;;17.83;55.71
47706;BME280;33471;52.104;1.318;2022-07-21T02:53:38;101517.33;;;17.68;57.65
47706;BME280;33471;52.104;1.318;2022-07-21T02:56:06;101505.73;;;18.47;54.49
47706;BME280;33471;52.104;1.318;2022-07-21T02:58:34;101507.71;;;18.92;53.97
47706;BME280;33471;52.104;1.318;2022-07-21T03:01:05;101508.70;;;18.12;55.53
47706;BME280;33471;52.104;1.318;2022-07-21T03:03:34;101504.53;;;18.72;54.21
47706;BME280;33471;52.104;1.318;2022-07-21T03:06:02;101511.52;;;18.33;55.67
47706;BME280;33471;52.104;1.318;2022-07-21T03:08:31;101509.86;;;18.71;54.30
47706;BME280;33471;52.104;1.318;2022-07-21T03:10:59;101507.83;;;18.92;53.60
47706;BME280;33471;52.104;1.318;2022-07-21T03:13:26;101519.67;;;17.45;58.09
47706;BME280;33471;52.104;1.318;2022-07-21T03:15:54;101515.69;;;17.92;57.62
47706;BME280;33471;52.104;1.318;2022-07-21T03:18:21;101516.64;;;17.82;59.26
47706;BME280;33471;52.104;1.318;2022-07-21T03:20:49;101520.52;;;16.78;62.48
47706;BME280;33471;52.104;1.318;2022-07-21T03:23:16;101524.43;;;17.61;59.72
47706;BME280;33471;52.104;1.318;2022-07-21T03:25:44;101525.31;;;17.60;59.69
47706;BME280;33471;52.104;1.318;2022-07-21T03:28:12;101528.17;;;17.05;59.85
47706;BME280;33471;52.104;1.318;2022-07-21T03:30:40;101528.83;;;18.20;57.53
47706;BME280;33471;52.104;1.318;2022-07-21T03:33:07;101528.31;;;17.59;60.10
47706;BME280;33471;52.104;1.318;2022-07-21T03:35:35;101523.93;;;17.35;61.87
47706;BME280;33471;52.104;1.318;2022-07-21T03:38:03;101524.19;;;17.59;59.91
47706;BME280;33471;52.104;1.318;2022-07-21T03:40:33;101524.50;;;17.85;59.22
47706;BME280;33471;52.104;1.318;2022-07-21T03:43:03;101527.27;;;17.42;60.35
47706;BME280;33471;52.104;1.318;2022-07-21T03:45:33;101535.47;;;17.41;59.98
47706;BME280;33471;52.104;1.318;2022-07-21T03:48:03;101539.55;;;17.27;59.08
47706;BME280;33471;52.104;1.318;2022-07-21T03:50:32;101540.42;;;17.94;58.10
47706;BME280;33471;52.104;1.318;2022-07-21T03:53:00;101539.07;;;17.76;58.64
47706;BME280;33471;52.104;1.318;2022-07-21T03:55:28;101536.94;;;17.64;59.24
47706;BME280;33471;52.104;1.318;2022-07-21T03:57:58;101534.01;;;18.26;56.67
47706;BME280;33471;52.104;1.318;2022-07-21T04:00:29;101534.47;;;18.43;56.10
47706;BME280;33471;52.104;1.318;2022-07-21T04:02:57;101534.40;;;18.82;55.11
47706;BME280;33471;52.104;1.318;2022-07-21T04:05:26;101540.33;;;18.17;55.91
47706;BME280;33471;52.104;1.318;2022-07-21T04:07:54;101547.17;;;18.28;55.95
47706;BME280;33471;52.104;1.318;2022-07-21T04:10:23;101544.81;;;18.53;55.34
47706;BME280;33471;52.104;1.318;2022-07-21T04:12:51;101549.07;;;18.53;55.36
47706;BME280;33471;52.104;1.318;2022-07-21T04:15:19;101542.82;;;18.87;54.27
47706;BME280;33471;52.104;1.318;2022-07-21T04:17:46;101548.06;;;17.05;58.46
47706;BME280;33471;52.104;1.318;2022-07-21T04:20:14;101547.93;;;18.24;55.91
47706;BME280;33471;52.104;1.318;2022-07-21T04:22:42;101552.69;;;17.73;57.96
47706;BME280;33471;52.104;1.318;2022-07-21T04:25:11;101556.16;;;17.44;57.60
47706;BME280;33471;52.104;1.318;2022-07-21T04:27:39;101556.02;;;18.29;56.39
47706;BME280;33471;52.104;1.318;2022-07-21T04:30:10;101551.21;;;18.57;55.02
47706;BME280;33471;52.104;1.318;2022-07-21T04:32:37;101547.97;;;18.26;55.64
47706;BME280;33471;52.104;1.318;2022-07-21T04:35:05;101556.16;;;17.35;56.50
47706;BME280;33471;52.104;1.318;2022-07-21T04:37:33;101550.16;;;19.19;53.36
47706;BME280;33471;52.104;1.318;2022-07-21T04:40:02;101556.85;;;17.64;56.63
47706;BME280;33471;52.104;1.318;2022-07-21T04:42:30;101556.37;;;17.89;56.77
47706;BME280;33471;52.104;1.318;2022-07-21T04:44:58;101559.00;;;17.14;58.77
47706;BME280;33471;52.104;1.318;2022-07-21T04:47:26;101565.52;;;18.37;56.01
47706;BME280;33471;52.104;1.318;2022-07-21T04:49:53;101568.38;;;17.66;58.09
47706;BME280;33471;52.104;1.318;2022-07-21T04:52:21;101570.82;;;17.50;57.50
47706;BME280;33471;52.104;1.318;2022-07-21T04:54:49;101575.31;;;17.98;55.96
47706;BME280;33471;52.104;1.318;2022-07-21T04:57:16;101566.57;;;18.06;55.90
47706;BME280;33471;52.104;1.318;2022-07-21T04:59:43;101573.62;;;17.85;56.78
47706;BME280;33471;52.104;1.318;2022-07-21T05:02:11;101576.15;;;17.51;56.90
47706;BME280;33471;52.104;1.318;2022-07-21T05:04:38;101579.73;;;17.75;56.92
47706;BME280;33471;52.104;1.318;2022-07-21T05:07:05;101582.07;;;17.52;55.41
47706;BME280;33471;52.104;1.318;2022-07-21T05:09:32;101578.39;;;18.63;53.78
47706;BME280;33471;52.104;1.318;2022-07-21T05:12:00;101577.00;;;19.14;52.69
47706;BME280;33471;52.104;1.318;2022-07-21T05:14:27;101582.60;;;19.26;52.40
47706;BME280;33471;52.104;1.318;2022-07-21T05:16:55;101590.77;;;18.13;56.13
47706;BME280;33471;52.104;1.318;2022-07-21T05:19:22;101588.59;;;18.75;53.56
47706;BME280;33471;52.104;1.318;2022-07-21T05:21:49;101593.71;;;19.11;52.66
47706;BME280;33471;52.104;1.318;2022-07-21T05:24:16;101596.57;;;18.92;53.45
47706;BME280;33471;52.104;1.318;2022-07-21T05:26:44;101597.89;;;19.02;53.28
47706;BME280;33471;52.104;1.318;2022-07-21T05:29:12;101600.95;;;18.16;54.98
47706;BME280;33471;52.104;1.318;2022-07-21T05:31:39;101607.74;;;17.97;55.25
47706;BME280;33471;52.104;1.318;2022-07-21T05:34:06;101609.99;;;18.37;53.88
47706;BME280;33471;52.104;1.318;2022-07-21T05:36:33;101613.44;;;18.95;52.60
47706;BME280;33471;52.104;1.318;2022-07-21T05:39:02;101617.71;;;18.61;53.51
47706;BME280;33471;52.104;1.318;2022-07-21T05:41:30;101618.78;;;18.15;54.77
47706;BME280;33471;52.104;1.318;2022-07-21T05:43:57;101617.39;;;18.96;52.47
47706;BME280;33471;52.104;1.318;2022-07-21T05:46:25;101618.47;;;18.89;52.40
47706;BME280;33471;52.104;1.318;2022-07-21T05:48:53;101624.47;;;18.35;53.59
47706;BME280;33471;52.104;1.318;2022-07-21T05:51:20;101626.41;;;18.74;53.50
47706;BME280;33471;52.104;1.318;2022-07-21T05:53:48;101626.27;;;18.83;53.41
47706;BME280;33471;52.104;1.318;2022-07-21T05:56:15;101624.87;;;17.55;55.74
47706;BME280;33471;52.104;1.318;2022-07-21T05:58:42;101634.66;;;17.97;55.50
47706;BME280;33471;52.104;1.318;2022-07-21T06:01:09;101636.32;;;17.83;54.87
47706;BME280;33471;52.104;1.318;2022-07-21T06:03:37;101642.42;;;18.16;54.61
47706;BME280;33471;52.104;1.318;2022-07-21T06:06:05;101647.02;;;17.63;55.09
47706;BME280;33471;52.104;1.318;2022-07-21T06:08:33;101641.72;;;18.57;53.09
47706;BME280;33471;52.104;1.318;2022-07-21T06:11:00;101639.54;;;19.59;50.72
47706;BME280;33471;52.104;1.318;2022-07-21T06:13:29;101645.30;;;18.29;53.59
47706;BME280;33471;52.104;1.318;2022-07-21T06:15:56;101641.80;;;18.65;52.23
47706;BME280;33471;52.104;1.318;2022-07-21T06:18:23;101651.24;;;17.95;54.58
47706;BME280;33471;52.104;1.318;2022-07-21T06:20:50;101647.04;;;18.80;52.88
47706;BME280;33471;52.104;1.318;2022-07-21T06:23:18;101658.96;;;18.59;52.77
47706;BME280;33471;52.104;1.318;2022-07-21T06:25:45;101656.32;;;18.06;53.56
47706;BME280;33471;52.104;1.318;2022-07-21T06:28:13;101653.50;;;18.57;51.98
47706;BME280;33471;52.104;1.318;2022-07-21T06:30:40;101654.31;;;18.64;52.33
47706;BME280;33471;52.104;1.318;2022-07-21T06:33:08;101657.96;;;19.10;51.37
47706;BME280;33471;52.104;1.318;2022-07-21T06:35:36;101658.97;;;18.08;54.51
47706;BME280;33471;52.104;1.318;2022-07-21T06:38:03;101660.14;;;18.43;53.19
47706;BME280;33471;52.104;1.318;2022-07-21T06:40:31;101661.62;;;17.90;55.15
47706;BME280;33471;52.104;1.318;2022-07-21T06:42:59;101657.76;;;18.75;51.78
47706;BME280;33471;52.104;1.318;2022-07-21T06:45:26;101657.85;;;19.47;50.42
47706;BME280;33471;52.104;1.318;2022-07-21T06:48:00;101663.44;;;19.53;50.62
47706;BME280;33471;52.104;1.318;2022-07-21T06:50:28;101669.00;;;19.52;50.64
47706;BME280;33471;52.104;1.318;2022-07-21T06:52:55;101673.23;;;20.07;49.58
47706;BME280;33471;52.104;1.318;2022-07-21T06:55:22;101667.24;;;19.83;49.61
47706;BME280;33471;52.104;1.318;2022-07-21T06:57:49;101674.65;;;19.30;50.35
47706;BME280;33471;52.104;1.318;2022-07-21T07:00:17;101677.72;;;18.96;50.86
47706;BME280;33471;52.104;1.318;2022-07-21T07:02:45;101682.76;;;19.18;50.89
47706;BME280;33471;52.104;1.318;2022-07-21T07:05:12;101679.93;;;19.21;50.87
47706;BME280;33471;52.104;1.318;2022-07-21T07:07:39;101684.24;;;19.28;51.11
47706;BME280;33471;52.104;1.318;2022-07-21T07:10:06;101688.33;;;18.50;52.16
47706;BME280;33471;52.104;1.318;2022-07-21T07:12:34;101682.99;;;19.78;49.79
47706;BME280;33471;52.104;1.318;2022-07-21T07:15:02;101685.13;;;20.45;49.05
47706;BME280;33471;52.104;1.318;2022-07-21T07:17:29;101685.15;;;19.60;50.16
47706;BME280;33471;52.104;1.318;2022-07-21T07:19:57;101685.26;;;20.02;49.01
47706;BME280;33471;52.104;1.318;2022-07-21T07:22:24;101689.18;;;19.96;48.99
47706;BME280;33471;52.104;1.318;2022-07-21T07:24:52;101690.55;;;19.16;50.74
47706;BME280;33471;52.104;1.318;2022-07-21T07:27:19;101687.53;;;19.84;49.35
47706;BME280;33471;52.104;1.318;2022-07-21T07:29:47;101700.74;;;18.97;51.85
47706;BME280;33471;52.104;1.318;2022-07-21T07:32:14;101698.53;;;19.31;49.80
47706;BME280;33471;52.104;1.318;2022-07-21T07:34:41;101701.21;;;20.40;48.75
47706;BME280;33471;52.104;1.318;2022-07-21T07:37:09;101701.92;;;19.87;47.88
47706;BME280;33471;52.104;1.318;2022-07-21T07:39:36;101705.23;;;19.19;49.20
47706;BME280;33471;52.104;1.318;2022-07-21T07:42:04;101709.00;;;19.59;49.05
47706;BME280;33471;52.104;1.318;2022-07-21T07:44:31;101706.99;;;19.98;48.57
47706;BME280;33471;52.104;1.318;2022-07-21T07:46:59;101707.77;;;19.52;49.11
47706;BME280;33471;52.104;1.318;2022-07-21T07:49:27;101722.20;;;19.29;49.85
47706;BME280;33471;52.104;1.318;2022-07-21T07:51:54;101708.38;;;19.10;50.55
47706;BME280;33471;52.104;1.318;2022-07-21T07:54:23;101709.38;;;19.17;49.77
47706;BME280;33471;52.104;1.318;2022-07-21T07:56:50;101711.95;;;19.16;49.81
47706;BME280;33471;52.104;1.318;2022-07-21T07:59:18;101710.20;;;19.66;48.60
47706;BME280;33471;52.104;1.318;2022-07-21T08:01:45;101703.95;;;20.40;46.62
47706;BME280;33471;52.104;1.318;2022-07-21T08:04:13;101708.52;;;19.08;49.13
47706;BME280;33471;52.104;1.318;2022-07-21T08:06:40;101711.85;;;19.66;48.38
47706;BME280;33471;52.104;1.318;2022-07-21T08:09:08;101712.70;;;20.00;47.18
47706;BME280;33471;52.104;1.318;2022-07-21T08:11:35;101718.58;;;20.85;45.33
47706;BME280;33471;52.104;1.318;2022-07-21T08:14:03;101720.64;;;20.76;45.34
47706;BME280;33471;52.104;1.318;2022-07-21T08:16:30;101725.10;;;20.99;44.44
47706;BME280;33471;52.104;1.318;2022-07-21T08:18:58;101722.81;;;20.61;46.05
47706;BME280;33471;52.104;1.318;2022-07-21T08:21:26;101728.22;;;21.37;44.39
47706;BME280;33471;52.104;1.318;2022-07-21T08:23:53;101732.97;;;20.91;44.24
47706;BME280;33471;52.104;1.318;2022-07-21T08:26:20;101728.55;;;20.09;46.14
47706;BME280;33471;52.104;1.318;2022-07-21T08:28:48;101729.26;;;20.64;45.45
47706;BME280;33471;52.104;1.318;2022-07-21T08:31:15;101734.58;;;21.34;43.30
47706;BME280;33471;52.104;1.318;2022-07-21T08:33:43;101729.95;;;20.83;44.25
47706;BME280;33471;52.104;1.318;2022-07-21T08:36:10;101731.12;;;20.42;44.69
47706;BME280;33471;52.104;1.318;2022-07-21T08:38:38;101730.37;;;20.30;45.10
47706;BME280;33471;52.104;1.318;2022-07-21T08:41:07;101733.90;;;20.82;42.12
47706;BME280;33471;52.104;1.318;2022-07-21T08:43:34;101733.92;;;19.90;45.29
47706;BME280;33471;52.104;1.318;2022-07-21T08:46:03;101739.17;;;20.59;42.93
47706;BME280;33471;52.104;1.318;2022-07-21T08:48:30;101743.98;;;21.31;41.65
47706;BME280;33471;52.104;1.318;2022-07-21T08:50:58;101738.40;;;21.78;40.87
47706;BME280;33471;52.104;1.318;2022-07-21T08:53:25;101747.50;;;21.46;40.92
47706;BME280;33471;52.104;1.318;2022-07-21T08:55:53;101742.49;;;21.63;41.34
47706;BME280;33471;52.104;1.318;2022-07-21T08:58:20;101741.20;;;20.60;43.16
47706;BME280;33471;52.104;1.318;2022-07-21T09:00:49;101744.94;;;21.44;41.82
47706;BME280;33471;52.104;1.318;2022-07-21T09:03:19;101757.10;;;20.97;42.15
47706;BME280;33471;52.104;1.318;2022-07-21T09:06:06;101757.59;;;22.04;40.92
47706;BME280;33471;52.104;1.318;2022-07-21T09:08:36;101763.95;;;21.56;41.24
47706;BME280;33471;52.104;1.318;2022-07-21T09:11:13;101761.17;;;21.11;41.94
47706;BME280;33471;52.104;1.318;2022-07-21T09:13:43;101759.55;;;21.04;42.66
47706;BME280;33471;52.104;1.318;2022-07-21T09:16:11;101763.24;;;21.14;41.79
47706;BME280;33471;52.104;1.318;2022-07-21T09:18:48;101771.77;;;21.37;41.16
47706;BME280;33471;52.104;1.318;2022-07-21T09:21:17;101768.04;;;20.54;43.08
47706;BME280;33471;52.104;1.318;2022-07-21T09:23:46;101766.27;;;21.22;42.31
47706;BME280;33471;52.104;1.318;2022-07-21T09:26:13;101767.40;;;21.26;41.14
47706;BME280;33471;52.104;1.318;2022-07-21T09:28:40;101766.53;;;20.31;43.62
47706;BME280;33471;52.104;1.318;2022-07-21T09:31:09;101774.50;;;21.61;40.74
47706;BME280;33471;52.104;1.318;2022-07-21T09:33:40;101777.05;;;20.29;42.68
47706;BME280;33471;52.104;1.318;2022-07-21T09:36:09;101776.74;;;20.25;42.52
47706;BME280;33471;52.104;1.318;2022-07-21T09:38:40;101781.27;;;21.91;40.39
47706;BME280;33471;52.104;1.318;2022-07-21T09:41:15;101778.56;;;21.90;39.88
47706;BME280;33471;52.104;1.318;2022-07-21T09:43:44;101784.96;;;22.65;39.18
47706;BME280;33471;52.104;1.318;2022-07-21T09:46:14;101793.08;;;22.03;40.12
47706;BME280;33471;52.104;1.318;2022-07-21T09:48:43;101792.89;;;22.02;40.24
47706;BME280;33471;52.104;1.318;2022-07-21T09:51:29;101800.40;;;22.42;40.32
47706;BME280;33471;52.104;1.318;2022-07-21T09:53:59;101794.57;;;22.46;39.87
47706;BME280;33471;52.104;1.318;2022-07-21T09:56:29;101793.13;;;23.23;38.64
47706;BME280;33471;52.104;1.318;2022-07-21T09:58:59;101795.28;;;22.22;40.63
47706;BME280;33471;52.104;1.318;2022-07-21T10:01:28;101803.81;;;21.21;41.65
47706;BME280;33471;52.104;1.318;2022-07-21T10:03:57;101803.27;;;21.86;40.52
47706;BME280;33471;52.104;1.318;2022-07-21T10:06:27;101817.75;;;22.13;39.76
47706;BME280;33471;52.104;1.318;2022-07-21T10:08:55;101820.68;;;21.73;40.42
47706;BME280;33471;52.104;1.318;2022-07-21T10:11:24;101818.36;;;21.94;40.57
47706;BME280;33471;52.104;1.318;2022-07-21T10:13:53;101815.12;;;22.48;39.01
47706;BME280;33471;52.104;1.318;2022-07-21T10:16:20;101818.32;;;22.28;39.25
47706;BME280;33471;52.104;1.318;2022-07-21T10:18:57;101815.80;;;22.59;38.48
47706;BME280;33471;52.104;1.318;2022-07-21T10:21:34;101816.34;;;22.67;38.29
47706;BME280;33471;52.104;1.318;2022-07-21T10:24:04;101826.25;;;22.10;38.40
47706;BME280;33471;52.104;1.318;2022-07-21T10:26:32;101823.09;;;23.47;37.04
47706;BME280;33471;52.104;1.318;2022-07-21T10:28:59;101833.37;;;22.14;39.60
47706;BME280;33471;52.104;1.318;2022-07-21T10:31:27;101835.01;;;22.45;38.77
47706;BME280;33471;52.104;1.318;2022-07-21T10:33:58;101845.48;;;23.12;37.14
47706;BME280;33471;52.104;1.318;2022-07-21T10:36:46;101839.83;;;22.72;38.21
47706;BME280;33471;52.104;1.318;2022-07-21T10:39:20;101848.61;;;21.97;38.69
47706;BME280;33471;52.104;1.318;2022-07-21T10:41:50;101849.29;;;22.40;38.49
47706;BME280;33471;52.104;1.318;2022-07-21T10:44:50;101837.61;;;23.77;37.62
47706;BME280;33471;52.104;1.318;2022-07-21T10:47:19;101838.53;;;22.82;37.32
47706;BME280;33471;52.104;1.318;2022-07-21T10:49:50;101833.37;;;23.74;35.61
47706;BME280;33471;52.104;1.318;2022-07-21T10:52:59;101838.59;;;24.74;35.56
47706;BME280;33471;52.104;1.318;2022-07-21T10:55:28;101848.51;;;22.43;37.84
47706;BME280;33471;52.104;1.318;2022-07-21T10:58:14;101848.43;;;22.45;38.17
47706;BME280;33471;52.104;1.318;2022-07-21T11:00:51;101849.40;;;22.37;37.90
47706;BME280;33471;52.104;1.318;2022-07-21T11:03:23;101856.40;;;22.84;37.54
47706;BME280;33471;52.104;1.318;2022-07-21T11:06:24;101852.85;;;22.95;37.87
47706;BME280;33471;52.104;1.318;2022-07-21T11:08:53;101846.46;;;23.68;36.27
47706;BME280;33471;52.104;1.318;2022-07-21T11:11:33;101854.37;;;22.60;37.96
47706;BME280;33471;52.104;1.318;2022-07-21T11:14:05;101848.06;;;23.40;36.55
47706;BME280;33471;52.104;1.318;2022-07-21T11:17:07;101852.50;;;23.54;36.38
47706;BME280;33471;52.104;1.318;2022-07-21T11:19:39;101864.01;;;22.33;38.01
47706;BME280;33471;52.104;1.318;2022-07-21T11:22:12;101858.97;;;22.68;36.76
47706;BME280;33471;52.104;1.318;2022-07-21T11:24:41;101870.45;;;22.00;38.96
47706;BME280;33471;52.104;1.318;2022-07-21T11:27:12;101870.86;;;22.64;36.78
47706;BME280;33471;52.104;1.318;2022-07-21T11:29:41;101865.18;;;23.87;35.07
47706;BME280;33471;52.104;1.318;2022-07-21T11:32:09;101871.42;;;23.25;35.71
47706;BME280;33471;52.104;1.318;2022-07-21T11:34:44;101870.70;;;23.26;35.88
47706;BME280;33471;52.104;1.318;2022-07-21T11:37:18;101870.45;;;23.52;35.21
47706;BME280;33471;52.104;1.318;2022-07-21T11:39:46;101870.45;;;24.40;34.57
47706;BME280;33471;52.104;1.318;2022-07-21T11:42:14;101871.20;;;24.16;34.08
47706;BME280;33471;52.104;1.318;2022-07-21T11:44:42;101870.03;;;24.40;34.30
47706;BME280;33471;52.104;1.318;2022-07-21T11:47:12;101874.86;;;23.91;34.57
47706;BME280;33471;52.104;1.318;2022-07-21T11:49:40;101871.87;;;23.37;35.28
47706;BME280;33471;52.104;1.318;2022-07-21T11:52:09;101866.75;;;23.91;34.28
47706;BME280;33471;52.104;1.318;2022-07-21T11:54:42;101865.63;;;24.03;34.39
47706;BME280;33471;52.104;1.318;2022-07-21T11:57:11;101867.48;;;23.92;34.88
47706;BME280;33471;52.104;1.318;2022-07-21T11:59:39;101862.02;;;24.18;34.04
47706;BME280;33471;52.104;1.318;2022-07-21T12:02:08;101863.96;;;23.39;34.93
47706;BME280;33471;52.104;1.318;2022-07-21T12:04:39;101866.34;;;24.36;33.96
47706;BME280;33471;52.104;1.318;2022-07-21T12:07:12;101867.96;;;22.56;35.23
47706;BME280;33471;52.104;1.318;2022-07-21T12:09:41;101862.41;;;24.58;33.01
47706;BME280;33471;52.104;1.318;2022-07-21T12:12:09;101860.32;;;25.00;32.39
47706;BME280;33471;52.104;1.318;2022-07-21T12:14:42;101862.52;;;24.63;33.27
47706;BME280;33471;52.104;1.318;2022-07-21T12:17:11;101862.60;;;24.11;33.68
47706;BME280;33471;52.104;1.318;2022-07-21T12:19:39;101863.91;;;25.21;32.37
47706;BME280;33471;52.104;1.318;2022-07-21T12:22:07;101867.13;;;24.59;32.61
47706;BME280;33471;52.104;1.318;2022-07-21T12:24:53;101862.16;;;24.45;33.30
47706;BME280;33471;52.104;1.318;2022-07-21T12:27:21;101860.14;;;24.47;32.91
47706;BME280;33471;52.104;1.318;2022-07-21T12:29:49;101853.15;;;25.06;32.35
47706;BME280;33471;52.104;1.318;2022-07-21T12:32:40;101854.78;;;25.04;32.33
47706;BME280;33471;52.104;1.318;2022-07-21T12:35:26;101859.31;;;24.46;32.00
47706;BME280;33471;52.104;1.318;2022-07-21T12:37:58;101865.58;;;24.24;33.81
47706;BME280;33471;52.104;1.318;2022-07-21T12:40:26;101858.05;;;23.90;34.00
47706;BME280;33471;52.104;1.318;2022-07-21T12:43:05;101861.39;;;24.55;33.03
47706;BME280;33471;52.104;1.318;2022-07-21T12:45:45;101860.95;;;24.14;34.17
47706;BME280;33471;52.104;1.318;2022-07-21T12:48:15;101861.19;;;24.32;33.41
47706;BME280;33471;52.104;1.318;2022-07-21T12:51:06;101866.82;;;25.24;32.53
47706;BME280;33471;52.104;1.318;2022-07-21T12:53:36;101863.80;;;24.48;33.11
47706;BME280;33471;52.104;1.318;2022-07-21T12:56:04;101869.95;;;24.29;32.56
47706;BME280;33471;52.104;1.318;2022-07-21T12:58:33;101871.13;;;24.55;32.92
47706;BME280;33471;52.104;1.318;2022-07-21T13:01:01;101868.10;;;24.86;31.85